sensor_id;sensor_type;location;lat;lon;timestamp;P1;durP1;ratioP1;P2;durP2;ratioP2
65567;SDS011;52211;50.154;8.682;2022-11-20T00:01:45;14.60;;;11.37;;
65567;SDS011;52211;50.154;8.682;2022-11-20T00:04:12;15.40;;;11.03;;
65567;SDS011;52211;50.154;8.682;2022-11-20T00:06:39;17.13;;;13.10;;
65567;SDS011;52211;50.154;8.682;2022-11-20T00:09:13;16.13;;;11.63;;
65567;SDS011;52211;50.154;8.682;2022-11-20T00:11:40;16.67;;;12.40;;
65567;SDS011;52211;50.154;8.682;2022-11-20T00:14:08;18.30;;;12.23;;
65567;SDS011;52211;50.154;8.682;2022-11-20T00:16:38;14.87;;;11.43;;
65567;SDS011;52211;50.154;8.682;2022-11-20T00:19:05;15.90;;;11.93;;
65567;SDS011;52211;50.154;8.682;2022-11-20T00:21:37;14.17;;;10.97;;
65567;SDS011;52211;50.154;8.682;2022-11-20T00:24:08;15.93;;;12.33;;
65567;SDS011;52211;50.154;8.682;2022-11-20T00:26:43;14.97;;;11.47;;
65567;SDS011;52211;50.154;8.682;2022-11-20T00:29:17;15.23;;;11.73;;
65567;SDS011;52211;50.154;8.682;2022-11-20T00:31:47;14.03;;;11.20;;
65567;SDS011;52211;50.154;8.682;2022-11-20T00:34:16;15.50;;;12.37;;
65567;SDS011;52211;50.154;8.682;2022-11-20T00:36:43;14.60;;;11.50;;
65567;SDS011;52211;50.154;8.682;2022-11-20T00:39:10;14.60;;;10.93;;
65567;SDS011;52211;50.154;8.682;2022-11-20T00:41:37;15.03;;;12.10;;
65567;SDS011;52211;50.154;8.682;2022-11-20T00:44:04;15.30;;;11.23;;
65567;SDS011;52211;50.154;8.682;2022-11-20T00:46:33;14.87;;;11.27;;
65567;SDS011;52211;50.154;8.682;2022-11-20T00:49:04;15.13;;;11.57;;
65567;SDS011;52211;50.154;8.682;2022-11-20T00:51:36;15.07;;;11.43;;
65567;SDS011;52211;50.154;8.682;2022-11-20T00:54:03;16.43;;;12.10;;
65567;SDS011;52211;50.154;8.682;2022-11-20T00:56:34;14.80;;;11.70;;
65567;SDS011;52211;50.154;8.682;2022-11-20T00:59:03;15.20;;;12.03;;
65567;SDS011;52211;50.154;8.682;2022-11-20T01:01:33;14.70;;;10.93;;
65567;SDS011;52211;50.154;8.682;2022-11-20T01:03:59;17.00;;;12.80;;
65567;SDS011;52211;50.154;8.682;2022-11-20T01:06:31;14.03;;;11.53;;
65567;SDS011;52211;50.154;8.682;2022-11-20T01:09:06;14.47;;;11.60;;
65567;SDS011;52211;50.154;8.682;2022-11-20T01:11:42;13.10;;;11.07;;
65567;SDS011;52211;50.154;8.682;2022-11-20T01:14:16;13.47;;;11.23;;
65567;SDS011;52211;50.154;8.682;2022-11-20T01:16:46;14.70;;;11.10;;
65567;SDS011;52211;50.154;8.682;2022-11-20T01:19:16;13.53;;;11.67;;
65567;SDS011;52211;50.154;8.682;2022-11-20T01:21:54;13.77;;;11.37;;
65567;SDS011;52211;50.154;8.682;2022-11-20T01:24:21;12.00;;;10.70;;
65567;SDS011;52211;50.154;8.682;2022-11-20T01:26:49;16.30;;;11.57;;
65567;SDS011;52211;50.154;8.682;2022-11-20T01:29:21;14.30;;;11.13;;
65567;SDS011;52211;50.154;8.682;2022-11-20T01:31:52;15.10;;;11.23;;
65567;SDS011;52211;50.154;8.682;2022-11-20T01:34:20;16.40;;;11.40;;
65567;SDS011;52211;50.154;8.682;2022-11-20T01:36:49;13.77;;;10.47;;
65567;SDS011;52211;50.154;8.682;2022-11-20T01:39:25;12.70;;;10.60;;
65567;SDS011;52211;50.154;8.682;2022-11-20T01:41:55;15.37;;;11.57;;
65567;SDS011;52211;50.154;8.682;2022-11-20T01:47:28;16.37;;;11.97;;
65567;SDS011;52211;50.154;8.682;2022-11-20T01:52:58;14.97;;;12.13;;
65567;SDS011;52211;50.154;8.682;2022-11-20T01:55:33;15.60;;;12.03;;
65567;SDS011;52211;50.154;8.682;2022-11-20T01:58:10;14.93;;;11.83;;
65567;SDS011;52211;50.154;8.682;2022-11-20T02:00:40;15.33;;;11.43;;
65567;SDS011;52211;50.154;8.682;2022-11-20T02:03:11;15.97;;;12.67;;
65567;SDS011;52211;50.154;8.682;2022-11-20T02:08:44;15.17;;;11.20;;
65567;SDS011;52211;50.154;8.682;2022-11-20T02:11:15;14.53;;;12.37;;
65567;SDS011;52211;50.154;8.682;2022-11-20T02:13:42;16.60;;;12.67;;
65567;SDS011;52211;50.154;8.682;2022-11-20T02:16:20;15.17;;;12.33;;
65567;SDS011;52211;50.154;8.682;2022-11-20T02:19:07;16.90;;;12.00;;
65567;SDS011;52211;50.154;8.682;2022-11-20T02:24:27;13.13;;;11.20;;
65567;SDS011;52211;50.154;8.682;2022-11-20T02:32:28;15.17;;;12.10;;
65567;SDS011;52211;50.154;8.682;2022-11-20T02:37:48;16.13;;;12.53;;
65567;SDS011;52211;50.154;8.682;2022-11-20T02:40:19;17.57;;;11.77;;
65567;SDS011;52211;50.154;8.682;2022-11-20T02:42:51;15.83;;;11.17;;
65567;SDS011;52211;50.154;8.682;2022-11-20T02:45:24;15.97;;;12.10;;
65567;SDS011;52211;50.154;8.682;2022-11-20T02:47:51;17.27;;;11.90;;
65567;SDS011;52211;50.154;8.682;2022-11-20T02:50:20;15.03;;;11.90;;
65567;SDS011;52211;50.154;8.682;2022-11-20T02:52:52;14.67;;;12.07;;
65567;SDS011;52211;50.154;8.682;2022-11-20T02:55:21;18.10;;;12.57;;
65567;SDS011;52211;50.154;8.682;2022-11-20T02:57:48;16.30;;;12.00;;
65567;SDS011;52211;50.154;8.682;2022-11-20T03:00:17;16.10;;;12.07;;
65567;SDS011;52211;50.154;8.682;2022-11-20T03:02:47;15.63;;;11.87;;
65567;SDS011;52211;50.154;8.682;2022-11-20T03:05:14;14.03;;;10.33;;
65567;SDS011;52211;50.154;8.682;2022-11-20T03:07:45;18.23;;;12.57;;
65567;SDS011;52211;50.154;8.682;2022-11-20T03:10:14;18.70;;;12.47;;
65567;SDS011;52211;50.154;8.682;2022-11-20T03:12:41;18.40;;;13.53;;
65567;SDS011;52211;50.154;8.682;2022-11-20T03:15:10;17.33;;;12.50;;
65567;SDS011;52211;50.154;8.682;2022-11-20T03:17:44;18.00;;;12.77;;
65567;SDS011;52211;50.154;8.682;2022-11-20T03:20:16;17.87;;;13.33;;
65567;SDS011;52211;50.154;8.682;2022-11-20T03:22:43;18.53;;;12.37;;
65567;SDS011;52211;50.154;8.682;2022-11-20T03:25:12;17.53;;;13.87;;
65567;SDS011;52211;50.154;8.682;2022-11-20T03:27:39;15.70;;;12.07;;
65567;SDS011;52211;50.154;8.682;2022-11-20T03:30:06;17.93;;;12.57;;
65567;SDS011;52211;50.154;8.682;2022-11-20T03:32:36;16.53;;;12.57;;
65567;SDS011;52211;50.154;8.682;2022-11-20T03:35:05;18.57;;;14.27;;
65567;SDS011;52211;50.154;8.682;2022-11-20T03:37:33;15.70;;;12.17;;
65567;SDS011;52211;50.154;8.682;2022-11-20T03:40:06;20.13;;;13.37;;
65567;SDS011;52211;50.154;8.682;2022-11-20T03:42:34;18.63;;;14.20;;
65567;SDS011;52211;50.154;8.682;2022-11-20T03:45:13;16.53;;;12.30;;
65567;SDS011;52211;50.154;8.682;2022-11-20T03:47:46;18.30;;;12.67;;
65567;SDS011;52211;50.154;8.682;2022-11-20T03:50:15;15.57;;;12.00;;
65567;SDS011;52211;50.154;8.682;2022-11-20T03:52:42;18.30;;;13.60;;
65567;SDS011;52211;50.154;8.682;2022-11-20T03:55:09;15.43;;;12.80;;
65567;SDS011;52211;50.154;8.682;2022-11-20T03:57:38;17.37;;;12.40;;
65567;SDS011;52211;50.154;8.682;2022-11-20T04:00:07;16.57;;;12.03;;
65567;SDS011;52211;50.154;8.682;2022-11-20T04:02:35;18.23;;;12.20;;
65567;SDS011;52211;50.154;8.682;2022-11-20T04:05:06;17.07;;;12.10;;
65567;SDS011;52211;50.154;8.682;2022-11-20T04:07:34;16.30;;;12.37;;
65567;SDS011;52211;50.154;8.682;2022-11-20T04:10:03;16.33;;;12.07;;
65567;SDS011;52211;50.154;8.682;2022-11-20T04:12:33;16.30;;;11.57;;
65567;SDS011;52211;50.154;8.682;2022-11-20T04:15:00;16.37;;;12.13;;
65567;SDS011;52211;50.154;8.682;2022-11-20T04:17:31;17.20;;;12.20;;
65567;SDS011;52211;50.154;8.682;2022-11-20T04:20:01;14.77;;;10.83;;
65567;SDS011;52211;50.154;8.682;2022-11-20T04:22:34;14.80;;;11.43;;
65567;SDS011;52211;50.154;8.682;2022-11-20T04:25:03;15.53;;;11.87;;
65567;SDS011;52211;50.154;8.682;2022-11-20T04:27:33;17.97;;;12.27;;
65567;SDS011;52211;50.154;8.682;2022-11-20T04:30:02;16.00;;;11.50;;
65567;SDS011;52211;50.154;8.682;2022-11-20T04:32:30;14.83;;;12.07;;
65567;SDS011;52211;50.154;8.682;2022-11-20T04:34:59;14.13;;;12.37;;
65567;SDS011;52211;50.154;8.682;2022-11-20T04:37:30;15.33;;;10.47;;
65567;SDS011;52211;50.154;8.682;2022-11-20T04:39:59;18.30;;;13.17;;
65567;SDS011;52211;50.154;8.682;2022-11-20T04:42:26;16.53;;;11.60;;
65567;SDS011;52211;50.154;8.682;2022-11-20T04:44:56;14.93;;;12.03;;
65567;SDS011;52211;50.154;8.682;2022-11-20T04:47:23;16.70;;;11.60;;
65567;SDS011;52211;50.154;8.682;2022-11-20T04:49:52;14.13;;;10.77;;
65567;SDS011;52211;50.154;8.682;2022-11-20T04:52:21;15.03;;;11.30;;
65567;SDS011;52211;50.154;8.682;2022-11-20T04:54:50;16.20;;;12.17;;
65567;SDS011;52211;50.154;8.682;2022-11-20T04:57:22;14.67;;;10.63;;
65567;SDS011;52211;50.154;8.682;2022-11-20T04:59:49;17.43;;;11.97;;
65567;SDS011;52211;50.154;8.682;2022-11-20T05:02:16;14.43;;;10.80;;
65567;SDS011;52211;50.154;8.682;2022-11-20T05:04:48;15.57;;;11.87;;
65567;SDS011;52211;50.154;8.682;2022-11-20T05:07:19;15.40;;;11.97;;
65567;SDS011;52211;50.154;8.682;2022-11-20T05:09:51;15.73;;;11.67;;
65567;SDS011;52211;50.154;8.682;2022-11-20T05:12:18;15.30;;;11.27;;
65567;SDS011;52211;50.154;8.682;2022-11-20T05:14:49;17.17;;;12.13;;
65567;SDS011;52211;50.154;8.682;2022-11-20T05:17:16;14.90;;;11.13;;
65567;SDS011;52211;50.154;8.682;2022-11-20T05:19:43;14.90;;;11.77;;
65567;SDS011;52211;50.154;8.682;2022-11-20T05:22:14;15.80;;;12.27;;
65567;SDS011;52211;50.154;8.682;2022-11-20T05:24:43;17.33;;;13.10;;
65567;SDS011;52211;50.154;8.682;2022-11-20T05:27:12;15.30;;;12.03;;
65567;SDS011;52211;50.154;8.682;2022-11-20T05:29:41;17.10;;;12.77;;
65567;SDS011;52211;50.154;8.682;2022-11-20T05:32:08;16.57;;;12.13;;
65567;SDS011;52211;50.154;8.682;2022-11-20T05:34:38;15.23;;;11.43;;
65567;SDS011;52211;50.154;8.682;2022-11-20T05:37:04;16.63;;;12.07;;
65567;SDS011;52211;50.154;8.682;2022-11-20T05:39:35;16.93;;;12.67;;
65567;SDS011;52211;50.154;8.682;2022-11-20T05:42:09;16.87;;;12.27;;
65567;SDS011;52211;50.154;8.682;2022-11-20T05:44:55;15.33;;;12.00;;
65567;SDS011;52211;50.154;8.682;2022-11-20T05:47:31;16.80;;;11.83;;
65567;SDS011;52211;50.154;8.682;2022-11-20T05:50:04;16.67;;;12.60;;
65567;SDS011;52211;50.154;8.682;2022-11-20T05:52:31;14.47;;;11.70;;
65567;SDS011;52211;50.154;8.682;2022-11-20T05:55:03;15.80;;;11.80;;
65567;SDS011;52211;50.154;8.682;2022-11-20T05:57:30;14.83;;;12.27;;
65567;SDS011;52211;50.154;8.682;2022-11-20T06:00:00;16.27;;;11.63;;
65567;SDS011;52211;50.154;8.682;2022-11-20T06:02:32;17.30;;;12.27;;
65567;SDS011;52211;50.154;8.682;2022-11-20T06:05:02;18.77;;;13.37;;
65567;SDS011;52211;50.154;8.682;2022-11-20T06:07:29;19.50;;;13.50;;
65567;SDS011;52211;50.154;8.682;2022-11-20T06:10:00;15.33;;;11.93;;
65567;SDS011;52211;50.154;8.682;2022-11-20T06:12:27;19.50;;;13.57;;
65567;SDS011;52211;50.154;8.682;2022-11-20T06:14:58;16.70;;;13.03;;
65567;SDS011;52211;50.154;8.682;2022-11-20T06:17:25;16.57;;;11.83;;
65567;SDS011;52211;50.154;8.682;2022-11-20T06:19:52;17.93;;;13.53;;
65567;SDS011;52211;50.154;8.682;2022-11-20T06:22:19;20.43;;;14.37;;
65567;SDS011;52211;50.154;8.682;2022-11-20T06:24:47;19.80;;;13.47;;
65567;SDS011;52211;50.154;8.682;2022-11-20T06:27:18;16.57;;;12.60;;
65567;SDS011;52211;50.154;8.682;2022-11-20T06:29:47;16.93;;;12.77;;
65567;SDS011;52211;50.154;8.682;2022-11-20T06:32:16;17.90;;;13.87;;
65567;SDS011;52211;50.154;8.682;2022-11-20T06:34:43;19.67;;;13.63;;
65567;SDS011;52211;50.154;8.682;2022-11-20T06:37:10;20.37;;;13.90;;
65567;SDS011;52211;50.154;8.682;2022-11-20T06:39:39;21.60;;;14.00;;
65567;SDS011;52211;50.154;8.682;2022-11-20T06:42:11;20.37;;;13.27;;
65567;SDS011;52211;50.154;8.682;2022-11-20T06:44:40;20.60;;;13.67;;
65567;SDS011;52211;50.154;8.682;2022-11-20T06:47:09;21.50;;;14.97;;
65567;SDS011;52211;50.154;8.682;2022-11-20T06:49:36;20.37;;;14.50;;
65567;SDS011;52211;50.154;8.682;2022-11-20T06:52:04;18.17;;;12.83;;
65567;SDS011;52211;50.154;8.682;2022-11-20T06:54:38;22.50;;;13.87;;
65567;SDS011;52211;50.154;8.682;2022-11-20T06:57:05;22.03;;;15.10;;
65567;SDS011;52211;50.154;8.682;2022-11-20T06:59:34;23.43;;;14.97;;
65567;SDS011;52211;50.154;8.682;2022-11-20T07:02:03;24.23;;;16.13;;
65567;SDS011;52211;50.154;8.682;2022-11-20T07:04:42;24.63;;;14.80;;
65567;SDS011;52211;50.154;8.682;2022-11-20T07:07:12;23.63;;;16.20;;
65567;SDS011;52211;50.154;8.682;2022-11-20T07:09:43;22.97;;;15.20;;
65567;SDS011;52211;50.154;8.682;2022-11-20T07:12:12;24.73;;;16.00;;
65567;SDS011;52211;50.154;8.682;2022-11-20T07:14:45;23.37;;;17.10;;
65567;SDS011;52211;50.154;8.682;2022-11-20T07:17:15;21.57;;;14.47;;
65567;SDS011;52211;50.154;8.682;2022-11-20T07:19:42;24.47;;;15.50;;
65567;SDS011;52211;50.154;8.682;2022-11-20T07:22:11;25.90;;;15.43;;
65567;SDS011;52211;50.154;8.682;2022-11-20T07:24:41;24.00;;;15.67;;
65567;SDS011;52211;50.154;8.682;2022-11-20T07:27:11;26.20;;;15.40;;
65567;SDS011;52211;50.154;8.682;2022-11-20T07:29:43;26.80;;;16.47;;
65567;SDS011;52211;50.154;8.682;2022-11-20T07:32:12;28.27;;;17.93;;
65567;SDS011;52211;50.154;8.682;2022-11-20T07:34:39;23.73;;;16.20;;
65567;SDS011;52211;50.154;8.682;2022-11-20T07:37:09;25.23;;;15.77;;
65567;SDS011;52211;50.154;8.682;2022-11-20T07:39:38;23.73;;;15.50;;
65567;SDS011;52211;50.154;8.682;2022-11-20T07:42:09;26.43;;;16.10;;
65567;SDS011;52211;50.154;8.682;2022-11-20T07:44:38;32.13;;;15.90;;
65567;SDS011;52211;50.154;8.682;2022-11-20T07:47:09;25.10;;;15.87;;
65567;SDS011;52211;50.154;8.682;2022-11-20T07:49:38;25.63;;;15.83;;
65567;SDS011;52211;50.154;8.682;2022-11-20T07:52:08;26.97;;;14.53;;
65567;SDS011;52211;50.154;8.682;2022-11-20T07:54:37;24.40;;;16.50;;
65567;SDS011;52211;50.154;8.682;2022-11-20T07:57:06;30.40;;;16.80;;
65567;SDS011;52211;50.154;8.682;2022-11-20T07:59:33;25.30;;;16.23;;
65567;SDS011;52211;50.154;8.682;2022-11-20T08:01:59;26.70;;;16.27;;
65567;SDS011;52211;50.154;8.682;2022-11-20T08:04:26;25.73;;;15.87;;
65567;SDS011;52211;50.154;8.682;2022-11-20T08:06:53;25.20;;;16.03;;
65567;SDS011;52211;50.154;8.682;2022-11-20T08:09:22;26.70;;;15.73;;
65567;SDS011;52211;50.154;8.682;2022-11-20T08:11:55;26.77;;;16.67;;
65567;SDS011;52211;50.154;8.682;2022-11-20T08:14:45;30.93;;;17.23;;
65567;SDS011;52211;50.154;8.682;2022-11-20T08:17:12;26.33;;;15.87;;
65567;SDS011;52211;50.154;8.682;2022-11-20T08:19:46;23.63;;;16.50;;
65567;SDS011;52211;50.154;8.682;2022-11-20T08:22:18;28.63;;;18.63;;
65567;SDS011;52211;50.154;8.682;2022-11-20T08:24:46;30.13;;;16.67;;
65567;SDS011;52211;50.154;8.682;2022-11-20T08:27:18;25.73;;;16.20;;
65567;SDS011;52211;50.154;8.682;2022-11-20T08:29:49;26.73;;;17.33;;
65567;SDS011;52211;50.154;8.682;2022-11-20T08:32:21;27.43;;;17.50;;
65567;SDS011;52211;50.154;8.682;2022-11-20T08:34:49;28.77;;;17.50;;
65567;SDS011;52211;50.154;8.682;2022-11-20T08:37:19;26.03;;;16.03;;
65567;SDS011;52211;50.154;8.682;2022-11-20T08:39:46;23.90;;;16.43;;
65567;SDS011;52211;50.154;8.682;2022-11-20T08:42:15;27.63;;;18.03;;
65567;SDS011;52211;50.154;8.682;2022-11-20T08:44:44;31.27;;;17.23;;
65567;SDS011;52211;50.154;8.682;2022-11-20T08:47:11;26.70;;;17.53;;
65567;SDS011;52211;50.154;8.682;2022-11-20T08:49:38;28.00;;;17.33;;
65567;SDS011;52211;50.154;8.682;2022-11-20T08:52:04;27.23;;;16.50;;
65567;SDS011;52211;50.154;8.682;2022-11-20T08:54:31;31.07;;;17.90;;
65567;SDS011;52211;50.154;8.682;2022-11-20T08:56:58;30.70;;;18.03;;
65567;SDS011;52211;50.154;8.682;2022-11-20T08:59:25;33.27;;;19.33;;
65567;SDS011;52211;50.154;8.682;2022-11-20T09:02:14;31.73;;;18.53;;
65567;SDS011;52211;50.154;8.682;2022-11-20T09:04:43;28.00;;;18.80;;
65567;SDS011;52211;50.154;8.682;2022-11-20T09:07:13;31.27;;;18.20;;
65567;SDS011;52211;50.154;8.682;2022-11-20T09:09:42;30.80;;;17.27;;
65567;SDS011;52211;50.154;8.682;2022-11-20T09:12:11;28.40;;;18.03;;
65567;SDS011;52211;50.154;8.682;2022-11-20T09:14:40;29.97;;;19.50;;
65567;SDS011;52211;50.154;8.682;2022-11-20T09:17:09;27.20;;;17.50;;
65567;SDS011;52211;50.154;8.682;2022-11-20T09:19:44;27.40;;;16.77;;
65567;SDS011;52211;50.154;8.682;2022-11-20T09:22:14;33.27;;;19.00;;
65567;SDS011;52211;50.154;8.682;2022-11-20T09:24:42;25.20;;;16.93;;
65567;SDS011;52211;50.154;8.682;2022-11-20T09:27:09;29.30;;;17.47;;
65567;SDS011;52211;50.154;8.682;2022-11-20T09:29:36;26.27;;;17.60;;
65567;SDS011;52211;50.154;8.682;2022-11-20T09:32:05;30.63;;;17.53;;
65567;SDS011;52211;50.154;8.682;2022-11-20T09:34:32;30.13;;;18.43;;
65567;SDS011;52211;50.154;8.682;2022-11-20T09:37:06;29.87;;;18.73;;
65567;SDS011;52211;50.154;8.682;2022-11-20T09:39:40;31.97;;;18.60;;
65567;SDS011;52211;50.154;8.682;2022-11-20T09:42:11;27.63;;;18.27;;
65567;SDS011;52211;50.154;8.682;2022-11-20T09:56:55;27.53;;;18.30;;
65567;SDS011;52211;50.154;8.682;2022-11-20T09:59:32;27.40;;;16.73;;
65567;SDS011;52211;50.154;8.682;2022-11-20T10:02:12;24.20;;;16.60;;
65567;SDS011;52211;50.154;8.682;2022-11-20T10:05:02;25.40;;;16.33;;
65567;SDS011;52211;50.154;8.682;2022-11-20T10:08:13;23.67;;;15.53;;
65567;SDS011;52211;50.154;8.682;2022-11-20T10:14:18;21.13;;;14.10;;
65567;SDS011;52211;50.154;8.682;2022-11-20T10:16:55;20.33;;;15.00;;
65567;SDS011;52211;50.154;8.682;2022-11-20T10:25:20;21.70;;;14.33;;
65567;SDS011;52211;50.154;8.682;2022-11-20T10:31:43;21.37;;;12.93;;
65567;SDS011;52211;50.154;8.682;2022-11-20T10:37:31;19.17;;;13.03;;
65567;SDS011;52211;50.154;8.682;2022-11-20T10:40:23;19.50;;;14.13;;
65567;SDS011;52211;50.154;8.682;2022-11-20T10:45:58;21.43;;;15.10;;
65567;SDS011;52211;50.154;8.682;2022-11-20T10:48:35;22.57;;;14.97;;
65567;SDS011;52211;50.154;8.682;2022-11-20T10:56:51;20.47;;;14.40;;
65567;SDS011;52211;50.154;8.682;2022-11-20T11:02:20;22.10;;;14.37;;
65567;SDS011;52211;50.154;8.682;2022-11-20T11:04:52;21.73;;;15.40;;
65567;SDS011;52211;50.154;8.682;2022-11-20T11:07:23;21.60;;;14.80;;
65567;SDS011;52211;50.154;8.682;2022-11-20T11:13:19;22.00;;;15.40;;
65567;SDS011;52211;50.154;8.682;2022-11-20T11:15:57;24.00;;;15.00;;
65567;SDS011;52211;50.154;8.682;2022-11-20T11:27:10;20.67;;;14.33;;
65567;SDS011;52211;50.154;8.682;2022-11-20T11:29:44;23.10;;;15.33;;
65567;SDS011;52211;50.154;8.682;2022-11-20T11:32:17;23.63;;;14.97;;
65567;SDS011;52211;50.154;8.682;2022-11-20T11:34:59;21.77;;;14.63;;
65567;SDS011;52211;50.154;8.682;2022-11-20T11:37:32;21.43;;;15.23;;
65567;SDS011;52211;50.154;8.682;2022-11-20T11:40:05;25.97;;;16.97;;
65567;SDS011;52211;50.154;8.682;2022-11-20T11:42:59;25.13;;;16.33;;
65567;SDS011;52211;50.154;8.682;2022-11-20T11:45:31;22.77;;;15.50;;
65567;SDS011;52211;50.154;8.682;2022-11-20T11:48:00;20.73;;;14.40;;
65567;SDS011;52211;50.154;8.682;2022-11-20T11:50:33;21.07;;;15.00;;
65567;SDS011;52211;50.154;8.682;2022-11-20T11:53:08;23.67;;;15.73;;
65567;SDS011;52211;50.154;8.682;2022-11-20T11:55:43;23.40;;;15.07;;
65567;SDS011;52211;50.154;8.682;2022-11-20T11:58:56;26.27;;;15.73;;
65567;SDS011;52211;50.154;8.682;2022-11-20T12:07:11;23.23;;;15.23;;
65567;SDS011;52211;50.154;8.682;2022-11-20T12:10:21;23.43;;;15.20;;
65567;SDS011;52211;50.154;8.682;2022-11-20T12:12:54;22.73;;;14.70;;
65567;SDS011;52211;50.154;8.682;2022-11-20T12:15:34;22.17;;;13.77;;
65567;SDS011;52211;50.154;8.682;2022-11-20T12:18:16;21.87;;;13.67;;
65567;SDS011;52211;50.154;8.682;2022-11-20T12:44:40;20.53;;;12.87;;
65567;SDS011;52211;50.154;8.682;2022-11-20T12:59:50;18.07;;;13.00;;
65567;SDS011;52211;50.154;8.682;2022-11-20T13:02:37;20.13;;;13.57;;
65567;SDS011;52211;50.154;8.682;2022-11-20T13:05:45;18.33;;;13.17;;
65567;SDS011;52211;50.154;8.682;2022-11-20T13:19:52;20.30;;;13.53;;
65567;SDS011;52211;50.154;8.682;2022-11-20T13:22:25;15.57;;;12.60;;
65567;SDS011;52211;50.154;8.682;2022-11-20T13:25:21;17.00;;;12.70;;
65567;SDS011;52211;50.154;8.682;2022-11-20T13:28:04;17.33;;;12.67;;
65567;SDS011;52211;50.154;8.682;2022-11-20T13:30:54;17.97;;;13.00;;
65567;SDS011;52211;50.154;8.682;2022-11-20T13:33:30;20.77;;;14.63;;
65567;SDS011;52211;50.154;8.682;2022-11-20T13:36:03;21.83;;;15.73;;
65567;SDS011;52211;50.154;8.682;2022-11-20T13:41:30;27.93;;;18.93;;
65567;SDS011;52211;50.154;8.682;2022-11-20T13:46:36;26.00;;;17.73;;
65567;SDS011;52211;50.154;8.682;2022-11-20T13:55:12;26.77;;;18.37;;
65567;SDS011;52211;50.154;8.682;2022-11-20T13:57:52;26.47;;;17.77;;
65567;SDS011;52211;50.154;8.682;2022-11-20T14:00:51;24.33;;;16.13;;
65567;SDS011;52211;50.154;8.682;2022-11-20T14:03:34;27.93;;;19.83;;
65567;SDS011;52211;50.154;8.682;2022-11-20T14:08:58;26.03;;;18.00;;
65567;SDS011;52211;50.154;8.682;2022-11-20T14:11:26;26.13;;;18.37;;
65567;SDS011;52211;50.154;8.682;2022-11-20T14:16:35;30.10;;;19.20;;
65567;SDS011;52211;50.154;8.682;2022-11-20T14:21:51;22.73;;;16.37;;
65567;SDS011;52211;50.154;8.682;2022-11-20T14:25:04;21.93;;;15.67;;
65567;SDS011;52211;50.154;8.682;2022-11-20T14:27:43;22.43;;;15.50;;
65567;SDS011;52211;50.154;8.682;2022-11-20T14:30:19;19.93;;;14.83;;
65567;SDS011;52211;50.154;8.682;2022-11-20T14:32:59;18.77;;;15.00;;
65567;SDS011;52211;50.154;8.682;2022-11-20T14:35:31;18.50;;;13.63;;
65567;SDS011;52211;50.154;8.682;2022-11-20T14:38:08;18.90;;;13.47;;
65567;SDS011;52211;50.154;8.682;2022-11-20T14:40:45;17.50;;;12.97;;
65567;SDS011;52211;50.154;8.682;2022-11-20T14:45:48;22.30;;;13.83;;
65567;SDS011;52211;50.154;8.682;2022-11-20T14:54:34;16.10;;;13.07;;
65567;SDS011;52211;50.154;8.682;2022-11-20T14:56:57;19.93;;;12.93;;
65567;SDS011;52211;50.154;8.682;2022-11-20T14:59:32;18.57;;;14.33;;
65567;SDS011;52211;50.154;8.682;2022-11-20T15:02:02;16.30;;;12.57;;
65567;SDS011;52211;50.154;8.682;2022-11-20T15:05:11;20.33;;;13.60;;
65567;SDS011;52211;50.154;8.682;2022-11-20T15:07:35;19.83;;;14.93;;
65567;SDS011;52211;50.154;8.682;2022-11-20T15:10:09;19.07;;;14.33;;
65567;SDS011;52211;50.154;8.682;2022-11-20T15:12:54;18.07;;;13.63;;
65567;SDS011;52211;50.154;8.682;2022-11-20T15:15:56;17.27;;;13.23;;
65567;SDS011;52211;50.154;8.682;2022-11-20T15:18:30;16.87;;;13.13;;
65567;SDS011;52211;50.154;8.682;2022-11-20T15:21:18;19.10;;;13.90;;
65567;SDS011;52211;50.154;8.682;2022-11-20T15:23:47;18.33;;;13.50;;
65567;SDS011;52211;50.154;8.682;2022-11-20T15:26:22;17.83;;;13.83;;
65567;SDS011;52211;50.154;8.682;2022-11-20T15:28:53;17.60;;;12.87;;
65567;SDS011;52211;50.154;8.682;2022-11-20T15:31:26;15.87;;;12.00;;
65567;SDS011;52211;50.154;8.682;2022-11-20T15:33:57;18.20;;;13.23;;
65567;SDS011;52211;50.154;8.682;2022-11-20T15:36:24;18.87;;;14.00;;
65567;SDS011;52211;50.154;8.682;2022-11-20T15:38:51;17.97;;;12.87;;
65567;SDS011;52211;50.154;8.682;2022-11-20T15:41:18;17.40;;;12.67;;
65567;SDS011;52211;50.154;8.682;2022-11-20T15:43:48;19.10;;;13.57;;
65567;SDS011;52211;50.154;8.682;2022-11-20T15:46:16;20.43;;;14.80;;
65567;SDS011;52211;50.154;8.682;2022-11-20T15:48:55;16.13;;;12.67;;
65567;SDS011;52211;50.154;8.682;2022-11-20T15:54:00;14.53;;;12.03;;
65567;SDS011;52211;50.154;8.682;2022-11-20T15:56:40;13.40;;;10.63;;
65567;SDS011;52211;50.154;8.682;2022-11-20T15:59:07;15.93;;;12.50;;
65567;SDS011;52211;50.154;8.682;2022-11-20T16:01:36;15.67;;;12.60;;
65567;SDS011;52211;50.154;8.682;2022-11-20T16:04:04;16.47;;;12.23;;
65567;SDS011;52211;50.154;8.682;2022-11-20T16:06:36;16.57;;;12.70;;
65567;SDS011;52211;50.154;8.682;2022-11-20T16:09:03;17.13;;;12.70;;
65567;SDS011;52211;50.154;8.682;2022-11-20T16:11:32;17.07;;;12.53;;
65567;SDS011;52211;50.154;8.682;2022-11-20T16:14:05;14.37;;;11.27;;
65567;SDS011;52211;50.154;8.682;2022-11-20T16:16:51;16.83;;;12.07;;
65567;SDS011;52211;50.154;8.682;2022-11-20T16:19:21;16.23;;;12.30;;
65567;SDS011;52211;50.154;8.682;2022-11-20T16:21:50;16.50;;;11.77;;
65567;SDS011;52211;50.154;8.682;2022-11-20T16:24:27;20.27;;;13.33;;
65567;SDS011;52211;50.154;8.682;2022-11-20T16:26:57;14.83;;;12.43;;
65567;SDS011;52211;50.154;8.682;2022-11-20T16:29:29;15.13;;;12.33;;
65567;SDS011;52211;50.154;8.682;2022-11-20T16:31:59;13.53;;;11.53;;
65567;SDS011;52211;50.154;8.682;2022-11-20T16:34:26;14.53;;;11.53;;
65567;SDS011;52211;50.154;8.682;2022-11-20T16:36:56;16.03;;;12.60;;
65567;SDS011;52211;50.154;8.682;2022-11-20T16:39:25;17.27;;;12.67;;
65567;SDS011;52211;50.154;8.682;2022-11-20T16:41:52;16.37;;;13.30;;
65567;SDS011;52211;50.154;8.682;2022-11-20T16:44:19;14.27;;;11.57;;
65567;SDS011;52211;50.154;8.682;2022-11-20T16:46:49;14.77;;;11.53;;
65567;SDS011;52211;50.154;8.682;2022-11-20T16:49:18;17.70;;;12.47;;
65567;SDS011;52211;50.154;8.682;2022-11-20T16:51:45;16.37;;;12.07;;
65567;SDS011;52211;50.154;8.682;2022-11-20T16:54:12;17.90;;;12.93;;
65567;SDS011;52211;50.154;8.682;2022-11-20T16:56:46;15.73;;;12.03;;
65567;SDS011;52211;50.154;8.682;2022-11-20T16:59:13;14.00;;;11.00;;
65567;SDS011;52211;50.154;8.682;2022-11-20T17:01:45;13.73;;;11.50;;
65567;SDS011;52211;50.154;8.682;2022-11-20T17:04:17;14.57;;;11.80;;
65567;SDS011;52211;50.154;8.682;2022-11-20T17:06:44;17.07;;;11.33;;
65567;SDS011;52211;50.154;8.682;2022-11-20T17:09:13;15.63;;;12.07;;
65567;SDS011;52211;50.154;8.682;2022-11-20T17:11:45;14.93;;;11.17;;
65567;SDS011;52211;50.154;8.682;2022-11-20T17:14:18;15.13;;;11.27;;
65567;SDS011;52211;50.154;8.682;2022-11-20T17:16:46;17.07;;;12.33;;
65567;SDS011;52211;50.154;8.682;2022-11-20T17:19:22;15.50;;;12.17;;
65567;SDS011;52211;50.154;8.682;2022-11-20T17:21:56;15.67;;;11.97;;
65567;SDS011;52211;50.154;8.682;2022-11-20T17:24:28;14.53;;;11.93;;
65567;SDS011;52211;50.154;8.682;2022-11-20T17:27:03;17.53;;;13.20;;